createdAt,value
2017-09-05T00:01:45.364Z,12.70
2017-09-05T00:04:13.246Z,12.70
2017-09-05T00:06:41.101Z,12.70
2017-09-05T00:09:11.987Z,12.70
2017-09-05T00:11:47.006Z,12.70
2017-09-05T00:14:27.345Z,12.60
2017-09-05T00:16:57.984Z,12.60
2017-09-05T00:19:25.941Z,12.60
2017-09-05T00:21:58.814Z,12.60
2017-09-05T00:24:26.716Z,12.60
2017-09-05T00:26:55.290Z,12.60
2017-09-05T00:29:24.113Z,12.60
2017-09-05T00:31:51.990Z,12.60
2017-09-05T00:34:19.803Z,12.60
2017-09-05T00:36:47.867Z,12.60
2017-09-05T00:39:15.669Z,12.60
2017-09-05T00:41:43.651Z,12.70
2017-09-05T00:44:11.444Z,12.70
2017-09-05T00:46:39.433Z,12.70
2017-09-05T00:49:08.587Z,12.70
2017-09-05T00:51:36.704Z,12.70
2017-09-05T00:54:04.609Z,12.70
2017-09-05T00:56:32.488Z,12.70
2017-09-05T00:59:00.613Z,12.70
2017-09-05T01:01:28.683Z,12.70
2017-09-05T01:03:56.776Z,12.70
2017-09-05T01:06:24.601Z,12.80
2017-09-05T01:08:52.408Z,12.80
2017-09-05T01:11:20.354Z,12.80
2017-09-05T01:13:48.328Z,12.80
2017-09-05T01:16:16.102Z,12.80
2017-09-05T01:18:44.073Z,12.80
2017-09-05T01:21:11.918Z,12.80
2017-09-05T01:23:39.972Z,12.80
2017-09-05T01:26:07.758Z,12.80
2017-09-05T01:28:35.699Z,12.80
2017-09-05T01:31:04.409Z,12.80
2017-09-05T01:33:32.400Z,12.80
2017-09-05T01:36:00.159Z,12.80
2017-09-05T01:38:28.187Z,12.80
2017-09-05T01:40:56.933Z,12.70
2017-09-05T01:43:24.864Z,12.70
2017-09-05T01:45:52.608Z,12.70
2017-09-05T01:48:21.240Z,12.60
2017-09-05T01:50:49.094Z,12.60
2017-09-05T01:53:16.977Z,12.70
2017-09-05T01:55:44.933Z,12.60
2017-09-05T01:58:12.702Z,12.60
2017-09-05T02:00:41.250Z,12.60
2017-09-05T02:03:09.231Z,12.60
2017-09-05T02:05:37.308Z,12.70
2017-09-05T02:08:05.989Z,12.60
2017-09-05T02:10:33.858Z,12.70
2017-09-05T02:13:02.549Z,12.70
2017-09-05T02:15:30.308Z,12.60
2017-09-05T02:17:58.905Z,12.60
2017-09-05T02:20:26.862Z,12.60
2017-09-05T02:22:54.740Z,12.60
2017-09-05T02:25:22.491Z,12.60
2017-09-05T02:27:50.285Z,12.60
2017-09-05T02:30:18.324Z,12.60
2017-09-05T02:32:46.228Z,12.60
2017-09-05T02:35:14.057Z,12.50
2017-09-05T02:37:42.331Z,12.50
2017-09-05T02:40:10.215Z,12.60
2017-09-05T02:45:31.091Z,12.70
2017-09-05T02:47:58.982Z,12.70
2017-09-05T02:50:26.726Z,12.70
2017-09-05T02:52:55.149Z,12.70
2017-09-05T02:55:22.882Z,12.70
2017-09-05T02:57:50.964Z,12.60
2017-09-05T03:00:18.905Z,12.70
2017-09-05T03:02:46.798Z,12.70
2017-09-05T03:05:14.538Z,12.70
2017-09-05T03:07:42.296Z,12.70
2017-09-05T03:10:10.062Z,12.70
2017-09-05T03:12:37.818Z,12.70
2017-09-05T03:15:05.876Z,12.70
2017-09-05T03:17:33.789Z,12.70
2017-09-05T03:20:01.851Z,12.70
2017-09-05T03:22:29.833Z,12.80
2017-09-05T03:24:57.611Z,12.70
2017-09-05T03:27:25.668Z,12.70
2017-09-05T03:29:53.475Z,12.80
2017-09-05T03:32:21.235Z,12.80
2017-09-05T03:34:49.191Z,12.80
2017-09-05T03:37:17.031Z,12.80
2017-09-05T03:39:44.894Z,12.80
2017-09-05T03:42:12.792Z,12.80
2017-09-05T03:44:40.660Z,12.80
2017-09-05T03:47:08.453Z,12.80
2017-09-05T03:49:36.299Z,12.80
2017-09-05T03:52:04.110Z,12.80
2017-09-05T03:54:32.004Z,12.80
2017-09-05T03:57:00.071Z,12.80
2017-09-05T03:59:27.930Z,12.80
2017-09-05T04:01:55.812Z,12.80
2017-09-05T04:04:23.866Z,12.80
2017-09-05T04:06:51.961Z,12.80
2017-09-05T04:09:19.749Z,12.80
2017-09-05T04:11:48.405Z,12.80
2017-09-05T04:14:16.396Z,12.80
2017-09-05T04:16:44.153Z,12.80
2017-09-05T04:19:11.991Z,12.80
2017-09-05T04:21:39.830Z,12.80
2017-09-05T04:24:07.745Z,12.80
2017-09-05T04:26:35.502Z,12.80
2017-09-05T04:29:03.376Z,12.80
2017-09-05T04:31:31.355Z,12.80
2017-09-05T04:33:59.250Z,12.80
2017-09-05T04:36:27.067Z,12.80
2017-09-05T04:38:55.434Z,12.80
2017-09-05T04:41:23.400Z,12.90
2017-09-05T04:43:51.531Z,12.90
2017-09-05T04:46:19.373Z,12.90
2017-09-05T04:48:47.228Z,12.90
2017-09-05T04:51:14.996Z,12.90
2017-09-05T04:53:42.732Z,12.90
2017-09-05T04:56:10.491Z,12.90
2017-09-05T04:58:38.288Z,12.90
2017-09-05T05:01:06.014Z,12.90
2017-09-05T05:03:33.992Z,12.90
2017-09-05T05:06:01.816Z,12.90
2017-09-05T05:08:29.726Z,12.90
2017-09-05T05:10:57.454Z,12.90
2017-09-05T05:13:25.210Z,12.90
2017-09-05T05:15:53.020Z,12.90
2017-09-05T05:18:20.795Z,12.90
2017-09-05T05:20:48.533Z,12.90
2017-09-05T05:23:16.412Z,13.00
2017-09-05T05:25:44.389Z,13.00
2017-09-05T05:28:12.247Z,13.00
2017-09-05T05:30:39.973Z,13.00
2017-09-05T05:33:07.983Z,13.10
2017-09-05T05:35:36.876Z,13.10
2017-09-05T05:38:04.845Z,13.10
2017-09-05T05:40:33.853Z,13.20
2017-09-05T05:43:01.704Z,13.10
2017-09-05T05:45:29.443Z,13.20
2017-09-05T05:47:57.336Z,13.20
2017-09-05T05:50:25.403Z,13.30
2017-09-05T05:52:53.392Z,13.30
2017-09-05T05:55:21.163Z,13.30
2017-09-05T05:57:49.429Z,13.40
2017-09-05T06:00:17.298Z,13.40
2017-09-05T06:02:46.324Z,13.50
2017-09-05T06:05:14.199Z,13.50
2017-09-05T06:07:41.959Z,13.50
2017-09-05T06:10:10.027Z,13.60
2017-09-05T06:12:38.508Z,13.70
2017-09-05T06:15:06.293Z,13.70
2017-09-05T06:17:34.099Z,13.70
2017-09-05T06:20:01.947Z,13.80
2017-09-05T06:22:29.815Z,13.90
2017-09-05T06:24:57.701Z,13.90
2017-09-05T06:27:25.572Z,14.10
2017-09-05T06:29:53.415Z,14.00
2017-09-05T06:32:21.309Z,14.10
2017-09-05T06:34:49.175Z,14.20
2017-09-05T06:37:17.030Z,14.30
2017-09-05T06:39:44.881Z,14.20
2017-09-05T06:42:12.732Z,14.30
2017-09-05T06:44:40.577Z,14.30
2017-09-05T06:47:08.402Z,14.40
2017-09-05T06:49:36.378Z,14.50
2017-09-05T06:52:04.318Z,14.70
2017-09-05T06:54:32.386Z,14.70
2017-09-05T06:57:00.241Z,14.80
2017-09-05T06:59:29.650Z,14.80
2017-09-05T07:01:57.832Z,14.70
2017-09-05T07:04:26.104Z,14.80
2017-09-05T07:06:54.280Z,14.70
2017-09-05T07:09:22.248Z,14.80
2017-09-05T07:11:50.323Z,14.90
2017-09-05T07:14:18.221Z,15.00
2017-09-05T07:16:46.054Z,15.00
2017-09-05T07:19:13.863Z,15.00
2017-09-05T07:21:41.667Z,15.20
2017-09-05T07:24:09.558Z,15.20
2017-09-05T07:26:37.620Z,15.20
2017-09-05T07:29:05.502Z,15.20
2017-09-05T07:31:33.579Z,15.20
2017-09-05T07:34:01.454Z,15.20
2017-09-05T07:36:31.747Z,15.10
2017-09-05T07:39:01.531Z,15.30
2017-09-05T07:41:31.508Z,15.30
2017-09-05T07:44:01.235Z,15.30
2017-09-05T07:46:29.115Z,15.40
2017-09-05T07:48:56.982Z,15.50
2017-09-05T07:51:24.726Z,15.60
2017-09-05T07:53:52.647Z,15.70
2017-09-05T07:56:20.520Z,16.00
2017-09-05T07:58:48.333Z,16.30
2017-09-05T08:01:16.171Z,16.20
2017-09-05T08:03:44.031Z,16.10
2017-09-05T08:06:11.999Z,16.10
2017-09-05T08:08:44.712Z,15.90
2017-09-05T08:11:12.941Z,15.90
2017-09-05T08:13:40.725Z,15.80
2017-09-05T08:16:08.881Z,16.00
2017-09-05T08:18:36.878Z,16.00
2017-09-05T08:21:04.811Z,16.20
2017-09-05T08:23:32.780Z,16.20
2017-09-05T08:26:00.747Z,16.30
2017-09-05T08:28:28.943Z,16.40
2017-09-05T08:30:56.787Z,16.60
2017-09-05T08:33:24.658Z,16.80
2017-09-05T08:35:52.529Z,16.80
2017-09-05T08:38:20.393Z,16.60
2017-09-05T08:40:48.198Z,16.40
2017-09-05T08:43:16.326Z,16.20
2017-09-05T08:45:44.425Z,16.10
2017-09-05T08:48:12.256Z,16.20
2017-09-05T08:50:40.253Z,16.20
2017-09-05T08:53:08.251Z,16.20
2017-09-05T08:55:36.069Z,16.00
2017-09-05T08:58:03.856Z,16.10
2017-09-05T09:00:31.926Z,16.10
2017-09-05T09:02:59.868Z,16.10
2017-09-05T09:05:27.615Z,16.10
2017-09-05T09:07:55.445Z,16.10
2017-09-05T09:10:23.196Z,16.20
2017-09-05T09:12:51.058Z,16.50
2017-09-05T09:15:18.901Z,16.60
2017-09-05T09:17:46.872Z,16.90
2017-09-05T09:20:33.769Z,17.10
2017-09-05T09:23:01.664Z,16.80
2017-09-05T09:25:30.133Z,16.90
2017-09-05T09:27:58.307Z,16.90
2017-09-05T09:30:26.686Z,16.80
2017-09-05T09:32:54.454Z,16.90
2017-09-05T09:35:22.514Z,16.70
2017-09-05T09:37:50.489Z,17.00
2017-09-05T09:40:18.484Z,17.10
2017-09-05T09:42:46.632Z,17.10
2017-09-05T09:45:14.409Z,17.10
2017-09-05T09:47:42.361Z,17.20
2017-09-05T09:50:10.338Z,17.60
2017-09-05T09:52:38.105Z,17.70
2017-09-05T09:55:05.978Z,18.00
2017-09-05T09:57:33.841Z,18.00
2017-09-05T10:00:01.972Z,18.50
2017-09-05T10:02:29.724Z,18.40
2017-09-05T10:04:57.631Z,18.60
2017-09-05T10:07:25.507Z,19.40
2017-09-05T10:09:53.482Z,21.00
2017-09-05T10:12:21.350Z,22.00
2017-09-05T10:14:49.197Z,22.30
2017-09-05T10:17:16.966Z,23.50
2017-09-05T10:19:44.849Z,23.00
2017-09-05T10:22:12.608Z,22.70
2017-09-05T10:24:40.369Z,22.70
2017-09-05T10:27:08.344Z,22.90
2017-09-05T10:29:36.415Z,23.40
2017-09-05T10:32:04.369Z,23.90
2017-09-05T10:34:32.370Z,24.20
2017-09-05T10:37:00.339Z,23.10
2017-09-05T10:39:28.287Z,22.20
2017-09-05T10:41:56.244Z,22.00
2017-09-05T10:44:24.212Z,21.80
2017-09-05T10:46:52.097Z,22.40
2017-09-05T10:49:20.038Z,23.30
2017-09-05T10:51:47.910Z,22.80
2017-09-05T10:54:15.650Z,23.40
2017-09-05T10:56:43.411Z,23.60
2017-09-05T10:59:11.444Z,23.70
2017-09-05T11:01:39.312Z,23.60
2017-09-05T11:04:07.072Z,24.30
2017-09-05T11:06:34.824Z,23.90
2017-09-05T11:09:02.682Z,24.10
2017-09-05T11:11:30.447Z,23.90
2017-09-05T11:13:58.426Z,24.80
2017-09-05T11:16:26.265Z,25.10
2017-09-05T11:18:54.037Z,25.00
2017-09-05T11:21:22.018Z,23.50
2017-09-05T11:23:49.754Z,23.80
2017-09-05T11:26:17.787Z,24.60
2017-09-05T11:28:45.756Z,25.20
2017-09-05T11:31:13.485Z,25.50
2017-09-05T11:33:41.251Z,25.60
2017-09-05T11:36:09.230Z,24.70
2017-09-05T11:38:37.110Z,24.20
2017-09-05T11:41:05.750Z,23.90
2017-09-05T11:43:33.524Z,24.40
2017-09-05T11:46:01.290Z,24.10
2017-09-05T11:48:29.193Z,24.20
2017-09-05T11:50:57.014Z,24.20
2017-09-05T11:53:24.849Z,24.90
2017-09-05T11:55:52.844Z,25.20
2017-09-05T11:58:21.022Z,25.50
2017-09-05T12:00:48.976Z,25.50
2017-09-05T12:03:16.769Z,25.40
2017-09-05T12:05:44.639Z,25.80
2017-09-05T12:08:12.687Z,25.90
2017-09-05T12:10:40.568Z,25.60
2017-09-05T12:13:08.841Z,25.10
2017-09-05T12:15:37.063Z,24.90
2017-09-05T12:18:06.823Z,25.40
2017-09-05T12:20:35.102Z,26.10
2017-09-05T12:23:03.593Z,26.30
2017-09-05T12:25:31.415Z,26.10
2017-09-05T12:27:59.512Z,25.20
2017-09-05T12:30:27.803Z,25.10
2017-09-05T12:32:55.982Z,25.40
2017-09-05T12:35:23.939Z,25.60
2017-09-05T12:37:51.805Z,26.20
2017-09-05T12:40:19.834Z,26.40
2017-09-05T12:42:47.855Z,26.30
2017-09-05T12:45:15.914Z,26.10
2017-09-05T12:47:43.660Z,25.50
2017-09-05T12:50:12.336Z,25.70
2017-09-05T12:52:40.084Z,25.00
2017-09-05T12:55:08.047Z,25.10
2017-09-05T12:57:35.944Z,25.80
2017-09-05T13:00:03.772Z,25.90
2017-09-05T13:02:31.830Z,26.20
2017-09-05T13:04:59.569Z,26.00
2017-09-05T13:07:27.370Z,26.30
2017-09-05T13:09:55.124Z,26.90
2017-09-05T13:12:23.891Z,27.20
2017-09-05T13:14:51.620Z,27.00
2017-09-05T13:17:19.438Z,26.40
2017-09-05T13:19:47.280Z,26.00
2017-09-05T13:22:15.142Z,26.20
2017-09-05T13:24:43.026Z,26.40
2017-09-05T13:27:10.791Z,26.90
2017-09-05T13:29:39.801Z,26.60
2017-09-05T13:32:07.836Z,26.30
2017-09-05T13:34:35.616Z,25.80
2017-09-05T13:37:04.392Z,26.20
2017-09-05T13:39:32.326Z,26.70
2017-09-05T13:42:00.137Z,26.90
2017-09-05T13:44:28.116Z,26.70
2017-09-05T13:46:56.063Z,26.60
2017-09-05T13:49:23.842Z,26.70
2017-09-05T13:51:51.651Z,27.40
2017-09-05T13:54:19.383Z,27.40
2017-09-05T13:56:48.200Z,27.20
2017-09-05T13:59:16.033Z,26.70
2017-09-05T14:01:44.705Z,26.40
2017-09-05T14:04:12.506Z,26.10
2017-09-05T14:06:40.427Z,25.80
2017-09-05T14:09:08.321Z,25.60
2017-09-05T14:11:36.261Z,25.50
2017-09-05T14:14:04.038Z,25.40
2017-09-05T14:16:31.763Z,25.50
2017-09-05T14:19:00.135Z,25.70
2017-09-05T14:21:27.975Z,25.70
2017-09-05T14:23:55.908Z,25.70
2017-09-05T14:26:23.714Z,25.40
2017-09-05T14:28:51.644Z,25.50
2017-09-05T14:31:20.357Z,26.00
2017-09-05T14:33:49.130Z,25.40
2017-09-05T14:36:16.972Z,25.70
2017-09-05T14:38:44.710Z,26.20
2017-09-05T14:41:12.606Z,26.30
2017-09-05T14:43:40.502Z,26.50
2017-09-05T14:46:08.346Z,26.30
2017-09-05T14:48:36.208Z,26.20
2017-09-05T14:51:04.002Z,26.20
2017-09-05T14:53:32.143Z,26.10
2017-09-05T14:56:00.061Z,25.90
2017-09-05T14:58:27.874Z,26.20
2017-09-05T15:01:14.695Z,26.30
2017-09-05T15:03:54.976Z,26.70
2017-09-05T15:06:28.137Z,27.40
2017-09-05T15:09:07.040Z,27.70
2017-09-05T15:11:35.988Z,28.50
2017-09-05T15:14:04.105Z,28.50
2017-09-05T15:16:31.890Z,28.50
2017-09-05T15:18:59.820Z,28.30
2017-09-05T15:21:27.833Z,27.80
2017-09-05T15:23:55.592Z,28.00
2017-09-05T15:26:23.423Z,27.90
2017-09-05T15:28:51.274Z,28.20
2017-09-05T15:31:19.204Z,28.50
2017-09-05T15:33:47.084Z,28.50
2017-09-05T15:36:15.139Z,28.10
2017-09-05T15:38:42.996Z,28.10
2017-09-05T15:41:10.910Z,27.80
2017-09-05T15:43:38.843Z,28.00
2017-09-05T15:46:06.703Z,28.20
2017-09-05T15:48:34.837Z,28.20
2017-09-05T15:51:02.613Z,27.70
2017-09-05T15:53:30.447Z,27.00
2017-09-05T15:55:58.233Z,26.60
2017-09-05T15:58:26.170Z,25.70
2017-09-05T16:00:53.944Z,25.40
2017-09-05T16:03:21.879Z,25.20
2017-09-05T16:05:49.748Z,25.40
2017-09-05T16:08:17.602Z,26.00
2017-09-05T16:10:45.387Z,26.30
2017-09-05T16:13:13.116Z,27.00
2017-09-05T16:15:40.893Z,26.80
2017-09-05T16:18:08.794Z,27.00
2017-09-05T16:20:36.653Z,27.20
2017-09-05T16:23:04.422Z,27.30
2017-09-05T16:25:32.168Z,27.20
2017-09-05T16:28:01.046Z,27.10
2017-09-05T16:30:28.869Z,26.90
2017-09-05T16:32:56.616Z,26.40
2017-09-05T16:35:24.365Z,25.90
2017-09-05T16:37:52.208Z,25.50
2017-09-05T16:40:20.069Z,25.70
2017-09-05T16:42:47.859Z,26.20
2017-09-05T16:45:15.911Z,26.80
2017-09-05T16:47:43.802Z,26.90
2017-09-05T16:50:11.640Z,27.20
2017-09-05T16:52:39.615Z,27.20
2017-09-05T16:55:07.680Z,27.10
2017-09-05T16:57:35.594Z,27.10
2017-09-05T17:00:03.620Z,27.10
2017-09-05T17:02:31.619Z,26.60
2017-09-05T17:04:59.558Z,26.00
2017-09-05T17:07:27.564Z,26.00
2017-09-05T17:09:55.499Z,25.50
2017-09-05T17:12:23.383Z,25.50
2017-09-05T17:14:51.335Z,25.00
2017-09-05T17:17:19.623Z,24.70
2017-09-05T17:19:47.483Z,24.20
2017-09-05T17:22:15.241Z,23.60
2017-09-05T17:24:43.099Z,23.10
2017-09-05T17:27:10.971Z,22.60
2017-09-05T17:29:38.833Z,22.10
2017-09-05T17:32:06.829Z,21.70
2017-09-05T17:34:34.990Z,21.30
2017-09-05T17:37:02.959Z,21.00
2017-09-05T17:39:30.919Z,20.80
2017-09-05T17:41:58.691Z,20.60
2017-09-05T17:44:26.738Z,20.40
2017-09-05T17:46:54.732Z,20.30
2017-09-05T17:49:22.899Z,20.10
2017-09-05T17:51:50.867Z,20.20
2017-09-05T17:54:18.726Z,20.30
2017-09-05T17:56:46.600Z,20.20
2017-09-05T17:59:14.570Z,20.20
2017-09-05T18:01:42.736Z,20.10
2017-09-05T18:04:10.494Z,19.80
2017-09-05T18:06:38.306Z,19.70
2017-09-05T18:09:06.295Z,19.60
2017-09-05T18:11:34.080Z,19.60
2017-09-05T18:14:02.009Z,19.60
2017-09-05T18:16:30.253Z,19.50
2017-09-05T18:18:58.106Z,19.40
2017-09-05T18:21:25.983Z,19.40
2017-09-05T18:23:53.945Z,19.30
2017-09-05T18:26:21.918Z,19.20
2017-09-05T18:28:49.691Z,19.20
2017-09-05T18:31:17.852Z,19.20
2017-09-05T18:33:46.001Z,19.10
2017-09-05T18:36:13.904Z,19.10
2017-09-05T18:38:41.857Z,19.00
2017-09-05T18:41:09.936Z,19.10
2017-09-05T18:43:41.947Z,19.10
2017-09-05T18:46:10.891Z,19.10
2017-09-05T18:48:39.441Z,19.10
2017-09-05T18:51:07.540Z,19.10
2017-09-05T18:53:35.818Z,19.20
2017-09-05T18:56:04.248Z,19.20
2017-09-05T18:58:32.391Z,19.30
2017-09-05T19:01:00.541Z,19.30
2017-09-05T19:03:28.887Z,19.30
2017-09-05T19:05:56.706Z,19.40
2017-09-05T19:08:25.878Z,19.30
2017-09-05T19:10:53.954Z,19.30
2017-09-05T19:13:21.846Z,19.30
2017-09-05T19:15:49.686Z,19.40
2017-09-05T19:18:17.898Z,19.30
2017-09-05T19:20:45.833Z,19.40
2017-09-05T19:23:13.730Z,19.30
2017-09-05T19:25:41.604Z,19.30
2017-09-05T19:28:09.439Z,19.30
2017-09-05T19:30:37.439Z,19.20
2017-09-05T19:33:06.197Z,19.30
2017-09-05T19:35:34.176Z,19.40
2017-09-05T19:38:02.126Z,19.40
2017-09-05T19:40:30.098Z,19.40
2017-09-05T19:42:57.958Z,19.40
2017-09-05T19:45:25.938Z,19.50
2017-09-05T19:47:53.926Z,19.50
2017-09-05T19:50:21.702Z,19.50
2017-09-05T19:52:49.640Z,19.40
2017-09-05T19:55:17.459Z,19.50
2017-09-05T19:57:45.986Z,19.40
2017-09-05T20:00:14.897Z,19.50
2017-09-05T20:02:42.783Z,19.40
2017-09-05T20:05:10.646Z,19.30
2017-09-05T20:07:38.690Z,19.40
2017-09-05T20:10:06.638Z,19.40
2017-09-05T20:12:34.608Z,19.40
2017-09-05T20:15:02.590Z,19.50
2017-09-05T20:17:30.511Z,19.40
2017-09-05T20:19:58.415Z,19.50
2017-09-05T20:22:26.384Z,19.40
2017-09-05T20:24:54.454Z,19.40
2017-09-05T20:27:22.326Z,19.40
2017-09-05T20:29:51.314Z,19.40
2017-09-05T20:32:19.462Z,19.40
2017-09-05T20:34:47.621Z,19.40
2017-09-05T20:37:15.819Z,19.40
2017-09-05T20:39:43.682Z,19.30
2017-09-05T20:42:11.812Z,19.20
2017-09-05T20:44:43.319Z,19.20
2017-09-05T20:47:11.501Z,19.20
2017-09-05T20:49:39.403Z,19.20
2017-09-05T20:52:07.239Z,19.20
2017-09-05T20:54:35.100Z,19.20
2017-09-05T20:57:03.696Z,19.20
2017-09-05T20:59:31.608Z,19.20
2017-09-05T21:01:59.618Z,19.20
2017-09-05T21:04:27.689Z,19.20
2017-09-05T21:06:55.555Z,19.10
2017-09-05T21:09:23.564Z,19.10
2017-09-05T21:11:51.527Z,19.20
2017-09-05T21:14:19.432Z,19.10
2017-09-05T21:16:47.218Z,19.10
2017-09-05T21:19:15.102Z,19.20
2017-09-05T21:21:43.098Z,19.20
2017-09-05T21:24:22.602Z,19.30
2017-09-05T21:26:50.835Z,19.30
2017-09-05T21:29:18.603Z,19.20
2017-09-05T21:31:46.412Z,19.20
2017-09-05T21:34:17.873Z,19.30
2017-09-05T21:36:56.573Z,19.20
2017-09-05T21:39:25.373Z,19.20
2017-09-05T21:41:53.345Z,19.20
2017-09-05T21:44:21.132Z,19.20
2017-09-05T21:46:48.969Z,19.10
2017-09-05T21:49:17.359Z,19.10
2017-09-05T21:51:46.445Z,19.10
2017-09-05T21:54:14.311Z,19.10
2017-09-05T21:56:42.283Z,19.10
2017-09-05T21:59:10.356Z,19.00
2017-09-05T22:01:38.221Z,19.00
2017-09-05T22:04:07.124Z,18.90
2017-09-05T22:06:35.079Z,18.90
2017-09-05T22:09:03.053Z,18.90
2017-09-05T22:11:31.016Z,18.80
2017-09-05T22:14:04.560Z,18.80
2017-09-05T22:16:37.951Z,18.70
2017-09-05T22:19:11.608Z,18.70
2017-09-05T22:21:39.410Z,18.70
2017-09-05T22:24:07.261Z,18.70
2017-09-05T22:26:40.862Z,18.70
2017-09-05T22:29:09.727Z,18.60
2017-09-05T22:31:37.668Z,18.70
2017-09-05T22:34:05.665Z,18.60
2017-09-05T22:36:33.428Z,18.60
2017-09-05T22:39:01.401Z,18.60
2017-09-05T22:41:29.294Z,18.60
2017-09-05T22:43:57.164Z,18.60
2017-09-05T22:46:25.018Z,18.60
2017-09-05T22:48:52.794Z,18.60
2017-09-05T22:51:20.644Z,18.70
2017-09-05T22:53:48.494Z,18.70
2017-09-05T22:56:16.251Z,18.70
2017-09-05T22:58:44.026Z,18.70
2017-09-05T23:01:11.893Z,18.70
2017-09-05T23:03:39.767Z,18.70
2017-09-05T23:06:07.726Z,18.70
2017-09-05T23:08:35.500Z,18.80
2017-09-05T23:11:03.382Z,18.70
2017-09-05T23:13:31.329Z,18.70
2017-09-05T23:15:59.217Z,18.70
2017-09-05T23:18:27.182Z,18.70
2017-09-05T23:20:55.130Z,18.70
2017-09-05T23:23:23.610Z,18.60
2017-09-05T23:25:51.372Z,18.60
2017-09-05T23:28:19.129Z,18.60
2017-09-05T23:30:47.618Z,18.60
2017-09-05T23:33:15.396Z,18.60
2017-09-05T23:35:43.160Z,18.60
2017-09-05T23:38:11.027Z,18.50
2017-09-05T23:40:39.615Z,18.50
2017-09-05T23:43:07.367Z,18.50
2017-09-05T23:45:35.333Z,18.50
2017-09-05T23:48:03.070Z,18.40
2017-09-05T23:50:30.884Z,18.40
2017-09-05T23:52:58.746Z,18.40
2017-09-05T23:55:26.693Z,18.40
2017-09-05T23:57:54.596Z,18.40
